createdAt,value
2023-01-29T07:25:51.633Z,1024.56
2023-01-29T07:26:51.628Z,1024.58
2023-01-29T07:27:51.602Z,1024.60
2023-01-29T07:28:51.619Z,1024.63
2023-01-29T07:29:51.595Z,1024.67
2023-01-29T07:30:51.580Z,1024.62
2023-01-29T07:31:51.668Z,1024.67
2023-01-29T07:32:51.559Z,1024.62
2023-01-29T07:33:51.539Z,1024.66
2023-01-29T07:34:51.543Z,1024.59
2023-01-29T07:35:51.511Z,1024.58
2023-01-29T07:36:51.499Z,1024.59
2023-01-29T07:37:51.495Z,1024.63
2023-01-29T07:38:51.533Z,1024.66
2023-01-29T07:39:51.481Z,1024.64
2023-01-29T07:40:51.458Z,1024.63
2023-01-29T07:41:51.454Z,1024.63
2023-01-29T07:42:51.447Z,1024.61
2023-01-29T07:43:51.431Z,1024.55
2023-01-29T07:44:51.420Z,1024.58
2023-01-29T07:45:51.493Z,1024.55
2023-01-29T07:46:51.390Z,1024.54
2023-01-29T07:47:51.388Z,1024.52
2023-01-29T07:48:51.367Z,1024.41
2023-01-29T07:49:51.374Z,1024.44
2023-01-29T07:50:51.355Z,1024.50
2023-01-29T07:51:51.359Z,1024.50
2023-01-29T07:52:51.331Z,1024.56
2023-01-29T07:53:51.317Z,1024.54
2023-01-29T07:54:51.321Z,1024.58
2023-01-29T07:55:51.316Z,1024.58
2023-01-29T07:56:51.301Z,1024.62
2023-01-29T07:57:51.286Z,1024.62
2023-01-29T07:58:51.269Z,1024.62
2023-01-29T07:59:51.248Z,1024.60
2023-01-29T08:00:51.280Z,1024.53
2023-01-29T08:01:51.261Z,1024.47
2023-01-29T08:02:51.225Z,1024.42
2023-01-29T08:03:51.557Z,1024.36
2023-01-29T08:04:51.202Z,1024.36
2023-01-29T08:05:51.196Z,1024.35
2023-01-29T08:06:51.170Z,1024.34
2023-01-29T08:08:05.336Z,1024.38
2023-01-29T08:08:52.169Z,1024.33
2023-01-29T08:09:51.139Z,1024.32
2023-01-29T08:10:51.122Z,1024.31
2023-01-29T08:11:51.134Z,1024.31
2023-01-29T08:12:51.112Z,1024.35
2023-01-29T08:13:51.118Z,1024.34
2023-01-29T08:14:51.078Z,1024.35
2023-01-29T08:15:51.071Z,1024.35
2023-01-29T08:16:51.091Z,1024.37
2023-01-29T08:17:57.722Z,1024.42
2023-01-29T08:18:52.066Z,1024.41
2023-01-29T08:19:51.030Z,1024.41
2023-01-29T08:20:52.811Z,1024.42
2023-01-29T08:21:51.003Z,1024.38
2023-01-29T08:22:51.002Z,1024.33
2023-01-29T08:23:50.991Z,1024.34
2023-01-29T08:24:54.367Z,1024.31
2023-01-29T08:25:51.993Z,1024.29
2023-01-29T08:26:50.957Z,1024.26
2023-01-29T08:27:50.948Z,1024.28
2023-01-29T08:28:50.949Z,1024.34
2023-01-29T08:29:50.965Z,1024.35
2023-01-29T08:30:50.978Z,1024.37
2023-01-29T08:31:50.915Z,1024.37
2023-01-29T08:32:50.889Z,1024.42
2023-01-29T08:33:50.885Z,1024.43
2023-01-29T08:34:50.853Z,1024.41
2023-01-29T08:35:50.876Z,1024.45
2023-01-29T08:36:50.854Z,1024.39
2023-01-29T08:37:50.840Z,1024.41
2023-01-29T08:38:50.836Z,1024.41
2023-01-29T08:39:50.822Z,1024.42
2023-01-29T08:40:50.819Z,1024.44
2023-01-29T08:41:50.781Z,1024.48
2023-01-29T08:42:50.768Z,1024.48
2023-01-29T08:43:50.773Z,1024.48
2023-01-29T08:44:50.774Z,1024.43
2023-01-29T08:45:50.803Z,1024.32
2023-01-29T08:46:50.724Z,1024.33
2023-01-29T08:47:50.739Z,1024.28
2023-01-29T08:48:50.700Z,1024.28
2023-01-29T08:49:50.702Z,1024.31
2023-01-29T08:50:50.702Z,1024.32
2023-01-29T08:51:50.669Z,1024.32
2023-01-29T08:52:50.668Z,1024.31
2023-01-29T08:53:51.593Z,1024.26
2023-01-29T08:54:50.637Z,1024.23
2023-01-29T08:55:50.648Z,1024.26
2023-01-29T08:56:50.618Z,1024.25
2023-01-29T08:57:50.600Z,1024.23
2023-01-29T08:58:50.598Z,1024.27
2023-01-29T08:59:50.577Z,1024.29
2023-01-29T09:00:50.631Z,1024.31
2023-01-29T09:01:50.568Z,1024.27
2023-01-29T09:02:50.564Z,1024.27
2023-01-29T09:03:50.563Z,1024.25
2023-01-29T09:04:50.535Z,1024.27
2023-01-29T09:05:50.529Z,1024.22
2023-01-29T09:06:50.502Z,1024.27
2023-01-29T09:07:52.623Z,1024.22
2023-01-29T09:08:50.492Z,1024.30
2023-01-29T09:09:50.480Z,1024.28
2023-01-29T09:10:50.479Z,1024.28
2023-01-29T09:11:50.477Z,1024.29
2023-01-29T09:12:50.432Z,1024.25
2023-01-29T09:13:50.437Z,1024.24
2023-01-29T09:14:50.413Z,1024.24
2023-01-29T09:15:50.403Z,1024.28
2023-01-29T09:16:50.435Z,1024.26
2023-01-29T09:17:50.462Z,1024.32
2023-01-29T09:18:50.382Z,1024.30
2023-01-29T09:19:50.356Z,1024.30
2023-01-29T09:20:50.383Z,1024.30
2023-01-29T09:21:50.341Z,1024.28
2023-01-29T09:22:50.345Z,1024.22
2023-01-29T09:23:50.326Z,1024.27
2023-01-29T09:24:50.299Z,1024.24
2023-01-29T09:25:50.305Z,1024.23
2023-01-29T09:26:50.274Z,1024.24
2023-01-29T09:27:50.293Z,1024.19
2023-01-29T09:28:50.254Z,1024.18
2023-01-29T09:29:50.246Z,1024.18
2023-01-29T09:30:50.442Z,1024.12
2023-01-29T09:31:50.407Z,1024.13
2023-01-29T09:32:53.565Z,1024.17
2023-01-29T09:33:50.207Z,1024.16
2023-01-29T09:34:50.202Z,1024.13
2023-01-29T09:35:50.188Z,1024.10
2023-01-29T09:36:50.168Z,1024.04
2023-01-29T09:37:50.159Z,1024.01
2023-01-29T09:38:50.154Z,1024.05
2023-01-29T09:39:50.144Z,1023.98
2023-01-29T09:40:50.134Z,1023.98
2023-01-29T09:41:50.113Z,1023.99
2023-01-29T09:42:50.187Z,1024.00
2023-01-29T09:43:50.110Z,1024.01
2023-01-29T09:44:50.102Z,1023.97
2023-01-29T09:45:50.161Z,1023.96
2023-01-29T09:46:50.068Z,1023.98
2023-01-29T09:47:50.060Z,1023.99
2023-01-29T09:48:50.058Z,1023.96
2023-01-29T09:49:50.040Z,1023.92
2023-01-29T09:50:50.032Z,1023.91
2023-01-29T09:51:50.020Z,1023.91
2023-01-29T09:52:49.992Z,1023.88
2023-01-29T09:53:50.066Z,1023.87
2023-01-29T09:54:49.987Z,1023.91
2023-01-29T09:55:49.978Z,1023.88
2023-01-29T09:56:49.966Z,1023.91
2023-01-29T09:57:49.948Z,1023.88
2023-01-29T09:58:49.964Z,1023.87
2023-01-29T09:59:49.929Z,1023.82
2023-01-29T10:00:49.899Z,1023.82
2023-01-29T10:01:50.083Z,1023.80
2023-01-29T10:02:49.881Z,1023.77
2023-01-29T10:03:49.888Z,1023.73
2023-01-29T10:04:49.998Z,1023.64
2023-01-29T10:05:49.845Z,1023.66
2023-01-29T10:06:49.896Z,1023.63
2023-01-29T10:07:49.823Z,1023.58
2023-01-29T10:08:49.835Z,1023.61
2023-01-29T10:09:49.816Z,1023.64
2023-01-29T10:10:49.798Z,1023.53
2023-01-29T10:11:49.782Z,1023.51
2023-01-29T10:12:49.788Z,1023.51
2023-01-29T10:13:49.764Z,1023.55
2023-01-29T10:14:49.781Z,1023.53
2023-01-29T10:15:49.772Z,1023.55
2023-01-29T10:16:49.760Z,1023.51
2023-01-29T10:17:50.549Z,1023.54
2023-01-29T10:18:49.715Z,1023.54
2023-01-29T10:19:49.692Z,1023.50
2023-01-29T10:20:49.702Z,1023.53
2023-01-29T10:21:49.683Z,1023.47
2023-01-29T10:22:49.665Z,1023.39
2023-01-29T10:23:49.651Z,1023.41
2023-01-29T10:24:49.639Z,1023.43
2023-01-29T10:25:49.696Z,1023.46
2023-01-29T10:26:49.664Z,1023.48
2023-01-29T10:27:49.631Z,1023.46
2023-01-29T10:28:49.606Z,1023.45
2023-01-29T10:29:49.596Z,1023.47
2023-01-29T10:30:49.651Z,1023.45
2023-01-29T10:31:49.762Z,1023.47
2023-01-29T10:32:49.559Z,1023.51
2023-01-29T10:34:01.477Z,1023.51
2023-01-29T10:34:50.540Z,1023.50
2023-01-29T10:35:49.534Z,1023.52
2023-01-29T10:36:49.536Z,1023.51
2023-01-29T10:37:49.495Z,1023.58
2023-01-29T10:38:49.495Z,1023.61
2023-01-29T10:39:49.483Z,1023.55
2023-01-29T10:40:49.468Z,1023.50
2023-01-29T10:41:49.454Z,1023.45
2023-01-29T10:42:49.451Z,1023.45
2023-01-29T10:43:49.426Z,1023.42
2023-01-29T10:44:49.438Z,1023.44
2023-01-29T10:45:49.427Z,1023.44
2023-01-29T10:46:49.403Z,1023.48
2023-01-29T10:47:49.572Z,1023.46
2023-01-29T10:48:49.371Z,1023.46
2023-01-29T10:49:50.299Z,1023.43
2023-01-29T10:50:49.363Z,1023.49
2023-01-29T10:51:49.356Z,1023.44
2023-01-29T10:52:49.328Z,1023.46
2023-01-29T10:53:49.342Z,1023.44
2023-01-29T10:54:49.303Z,1023.41
2023-01-29T10:55:49.308Z,1023.40
2023-01-29T10:56:49.281Z,1023.37
2023-01-29T10:57:49.282Z,1023.34
2023-01-29T10:58:49.284Z,1023.33
2023-01-29T10:59:49.262Z,1023.24
2023-01-29T11:00:49.248Z,1023.26
2023-01-29T11:01:49.267Z,1023.19
2023-01-29T11:02:49.352Z,1023.19
2023-01-29T11:03:49.217Z,1023.20
2023-01-29T11:04:49.188Z,1023.20
2023-01-29T11:05:49.184Z,1023.17
2023-01-29T11:06:49.169Z,1023.21
2023-01-29T11:07:49.172Z,1023.14
2023-01-29T11:08:49.165Z,1023.12
2023-01-29T11:09:49.148Z,1023.11
2023-01-29T11:10:49.134Z,1023.08
2023-01-29T11:11:49.130Z,1022.99
2023-01-29T11:12:49.126Z,1022.99
2023-01-29T11:13:49.105Z,1022.97
2023-01-29T11:14:49.111Z,1022.92
2023-01-29T11:15:49.069Z,1022.88
2023-01-29T11:16:49.274Z,1022.86
2023-01-29T11:17:49.067Z,1022.86
2023-01-29T11:18:49.034Z,1022.86
2023-01-29T11:19:49.055Z,1022.81
2023-01-29T11:20:49.010Z,1022.80
2023-01-29T11:21:49.004Z,1022.81
2023-01-29T11:22:48.989Z,1022.76
2023-01-29T11:23:49.001Z,1022.76
2023-01-29T11:24:49.018Z,1022.79
2023-01-29T11:25:48.959Z,1022.75
2023-01-29T11:26:48.947Z,1022.74
2023-01-29T11:27:48.938Z,1022.70
2023-01-29T11:28:48.927Z,1022.67
2023-01-29T11:29:48.940Z,1022.70
2023-01-29T11:30:48.956Z,1022.69
2023-01-29T11:31:48.965Z,1022.71
2023-01-29T11:32:48.898Z,1022.70
2023-01-29T11:33:48.883Z,1022.71
2023-01-29T11:34:48.867Z,1022.69
2023-01-29T11:35:48.861Z,1022.67
2023-01-29T11:36:48.832Z,1022.69
2023-01-29T11:37:48.825Z,1022.68
2023-01-29T11:38:48.822Z,1022.65
2023-01-29T11:39:48.819Z,1022.63
2023-01-29T11:40:48.816Z,1022.55
2023-01-29T11:41:48.779Z,1022.55
2023-01-29T11:42:48.786Z,1022.54
2023-01-29T11:43:48.773Z,1022.56
2023-01-29T11:44:48.759Z,1022.49
2023-01-29T11:45:48.750Z,1022.48
2023-01-29T11:46:48.761Z,1022.45
2023-01-29T11:47:48.738Z,1022.47
2023-01-29T11:48:48.698Z,1022.48
2023-01-29T11:49:48.775Z,1022.52
2023-01-29T11:50:48.692Z,1022.48
2023-01-29T11:51:48.695Z,1022.46
2023-01-29T11:52:48.664Z,1022.42
2023-01-29T11:53:48.647Z,1022.41
2023-01-29T11:54:48.647Z,1022.42
2023-01-29T11:55:50.993Z,1022.38
2023-01-29T11:56:48.625Z,1022.34
2023-01-29T11:57:48.624Z,1022.34
2023-01-29T11:58:48.599Z,1022.29
2023-01-29T11:59:48.611Z,1022.34
2023-01-29T12:00:48.684Z,1022.33
2023-01-29T12:01:48.584Z,1022.32
2023-01-29T12:02:48.558Z,1022.29
2023-01-29T12:03:48.617Z,1022.24
2023-01-29T12:04:48.529Z,1022.24
2023-01-29T12:05:48.578Z,1022.21
2023-01-29T12:06:48.523Z,1022.18
2023-01-29T12:07:48.489Z,1022.16
2023-01-29T12:08:48.492Z,1022.13
2023-01-29T12:09:48.481Z,1022.13
2023-01-29T12:10:48.479Z,1022.12
2023-01-29T12:11:48.440Z,1022.11
2023-01-29T12:12:48.462Z,1022.04
2023-01-29T12:13:48.421Z,1022.06
2023-01-29T12:14:48.414Z,1022.06
2023-01-29T12:15:48.506Z,1022.05
2023-01-29T12:16:48.433Z,1022.00
2023-01-29T12:17:48.470Z,1022.03
2023-01-29T12:18:48.410Z,1021.99
2023-01-29T12:19:48.360Z,1022.01
2023-01-29T12:20:48.360Z,1021.96
2023-01-29T12:21:48.352Z,1021.95
2023-01-29T12:22:48.350Z,1021.89
2023-01-29T12:23:48.309Z,1021.89
2023-01-29T12:24:48.304Z,1021.94
2023-01-29T12:25:48.304Z,1021.93
2023-01-29T12:26:48.279Z,1021.91
2023-01-29T12:27:48.291Z,1021.87
2023-01-29T12:28:48.270Z,1021.86
2023-01-29T12:29:48.256Z,1021.83
2023-01-29T12:30:48.271Z,1021.72
2023-01-29T12:31:48.235Z,1021.68
2023-01-29T12:32:48.229Z,1021.63
2023-01-29T12:33:48.260Z,1021.58
2023-01-29T12:34:48.205Z,1021.54
2023-01-29T12:35:48.176Z,1021.53
2023-01-29T12:36:48.176Z,1021.46
2023-01-29T12:37:48.195Z,1021.40
2023-01-29T12:38:48.145Z,1021.36
2023-01-29T12:39:48.147Z,1021.36
2023-01-29T12:40:48.122Z,1021.31
2023-01-29T12:41:48.106Z,1021.32
2023-01-29T12:42:48.113Z,1021.28
2023-01-29T12:43:48.122Z,1021.25
2023-01-29T12:44:48.092Z,1021.26
2023-01-29T12:45:48.063Z,1021.19
2023-01-29T12:46:48.137Z,1021.14
2023-01-29T12:47:48.044Z,1021.10
2023-01-29T12:48:48.046Z,1021.06
2023-01-29T12:49:48.030Z,1020.99
2023-01-29T12:50:48.024Z,1021.02
2023-01-29T12:51:48.001Z,1020.93
2023-01-29T12:52:47.989Z,1020.91
2023-01-29T12:53:48.011Z,1020.90
2023-01-29T12:54:47.976Z,1020.90
2023-01-29T12:55:47.954Z,1020.85
2023-01-29T12:56:47.947Z,1020.82
2023-01-29T12:57:47.937Z,1020.83
2023-01-29T12:58:47.947Z,1020.86
2023-01-29T12:59:47.920Z,1020.81
2023-01-29T13:00:47.987Z,1020.84
2023-01-29T13:01:47.899Z,1020.87
2023-01-29T13:02:48.007Z,1020.85
2023-01-29T13:03:47.889Z,1020.87
2023-01-29T13:04:47.854Z,1020.81
2023-01-29T13:05:47.843Z,1020.82
2023-01-29T13:06:47.852Z,1020.79
2023-01-29T13:07:47.838Z,1020.77
2023-01-29T13:08:47.810Z,1020.75
2023-01-29T13:09:47.810Z,1020.74
2023-01-29T13:10:47.787Z,1020.70
2023-01-29T13:11:47.773Z,1020.65
2023-01-29T13:12:47.781Z,1020.66
2023-01-29T13:13:47.775Z,1020.67
2023-01-29T13:14:47.765Z,1020.72
2023-01-29T13:15:47.737Z,1020.63
2023-01-29T13:16:47.721Z,1020.64
2023-01-29T13:17:47.706Z,1020.66
2023-01-29T13:18:47.728Z,1020.61
2023-01-29T13:19:47.769Z,1020.60
2023-01-29T13:20:47.689Z,1020.62
2023-01-29T13:21:47.662Z,1020.59
2023-01-29T13:22:47.668Z,1020.59
2023-01-29T13:23:47.640Z,1020.57
2023-01-29T13:24:58.747Z,1020.59
2023-01-29T13:25:48.639Z,1020.55
2023-01-29T13:26:47.716Z,1020.58
2023-01-29T13:27:47.623Z,1020.54
2023-01-29T13:28:47.601Z,1020.51
2023-01-29T13:29:47.573Z,1020.49
2023-01-29T13:30:47.760Z,1020.51
2023-01-29T13:31:47.712Z,1020.44
2023-01-29T13:32:48.111Z,1020.44
2023-01-29T13:33:47.546Z,1020.42
2023-01-29T13:34:47.523Z,1020.38
2023-01-29T13:35:47.531Z,1020.33
2023-01-29T13:36:47.516Z,1020.33
2023-01-29T13:37:47.483Z,1020.31
2023-01-29T13:38:47.489Z,1020.34
2023-01-29T13:39:47.492Z,1020.30
2023-01-29T13:40:47.487Z,1020.22
2023-01-29T13:41:47.451Z,1020.27
2023-01-29T13:42:47.431Z,1020.22
2023-01-29T13:43:48.331Z,1020.20
2023-01-29T13:44:47.408Z,1020.17
2023-01-29T13:45:47.438Z,1020.15
2023-01-29T13:46:47.419Z,1020.16
2023-01-29T13:47:47.370Z,1020.16
2023-01-29T13:48:47.382Z,1020.17
2023-01-29T13:49:47.369Z,1020.16
2023-01-29T13:50:47.358Z,1020.12
2023-01-29T13:51:47.344Z,1020.16
2023-01-29T13:52:47.337Z,1020.15
2023-01-29T13:53:47.317Z,1020.16
2023-01-29T13:54:47.297Z,1020.14
2023-01-29T13:55:47.297Z,1020.12
2023-01-29T13:56:47.307Z,1020.12
2023-01-29T13:57:47.287Z,1020.09
2023-01-29T13:58:47.285Z,1020.12
2023-01-29T13:59:47.251Z,1020.11
2023-01-29T14:00:47.230Z,1020.10
2023-01-29T14:01:47.255Z,1020.06
2023-01-29T14:02:47.289Z,1020.04
2023-01-29T14:04:03.614Z,1020.05
2023-01-29T14:04:48.198Z,1020.04
2023-01-29T14:05:47.185Z,1020.03
2023-01-29T14:06:47.200Z,1019.99
2023-01-29T14:07:47.160Z,1019.98
2023-01-29T14:08:47.159Z,1020.01
2023-01-29T14:09:47.125Z,1020.01
2023-01-29T14:10:47.133Z,1019.99
2023-01-29T14:11:47.121Z,1019.98
2023-01-29T14:12:47.123Z,1020.01
2023-01-29T14:13:47.113Z,1020.03
2023-01-29T14:14:47.086Z,1020.01
2023-01-29T14:15:47.074Z,1020.00
2023-01-29T14:16:47.093Z,1020.02
2023-01-29T14:17:47.067Z,1020.04
2023-01-29T14:18:47.043Z,1020.08
2023-01-29T14:19:47.031Z,1020.05
2023-01-29T14:20:47.099Z,1020.07
2023-01-29T14:21:46.998Z,1020.07
2023-01-29T14:22:46.999Z,1020.09
2023-01-29T14:23:47.054Z,1020.08
2023-01-29T14:24:46.972Z,1020.11
2023-01-29T14:25:46.947Z,1020.12
2023-01-29T14:26:46.997Z,1020.14
2023-01-29T14:27:46.930Z,1020.10
2023-01-29T14:28:46.944Z,1020.12
2023-01-29T14:29:46.918Z,1020.12
2023-01-29T14:30:47.076Z,1020.13
2023-01-29T14:31:46.994Z,1020.14
2023-01-29T14:32:46.892Z,1020.11
2023-01-29T14:33:46.884Z,1020.15
2023-01-29T14:34:46.863Z,1020.10
2023-01-29T14:35:46.852Z,1020.06
2023-01-29T14:36:46.829Z,1020.05
2023-01-29T14:37:46.829Z,1020.06
2023-01-29T14:38:46.805Z,1020.06
2023-01-29T14:39:46.809Z,1020.07
2023-01-29T14:40:46.796Z,1020.11
2023-01-29T14:41:46.782Z,1020.10
2023-01-29T14:42:46.780Z,1020.12
2023-01-29T14:43:46.746Z,1020.08
2023-01-29T14:44:46.768Z,1020.05
2023-01-29T14:45:46.767Z,1020.05
2023-01-29T14:46:46.737Z,1020.04
2023-01-29T14:47:46.716Z,1020.09
2023-01-29T14:48:46.695Z,1020.08
2023-01-29T14:49:46.695Z,1020.05
2023-01-29T14:50:46.696Z,1020.04
2023-01-29T14:51:46.689Z,1020.07
2023-01-29T14:52:46.653Z,1020.00
2023-01-29T14:53:46.635Z,1020.03
2023-01-29T14:54:46.630Z,1020.06
2023-01-29T14:55:46.630Z,1020.01
2023-01-29T14:56:46.617Z,1020.05
2023-01-29T14:57:46.591Z,1019.99
2023-01-29T14:58:46.596Z,1020.02
2023-01-29T14:59:46.589Z,1019.99
2023-01-29T15:00:46.582Z,1020.07
2023-01-29T15:01:46.659Z,1020.01
2023-01-29T15:02:46.601Z,1020.08
2023-01-29T15:03:46.541Z,1020.03
2023-01-29T15:04:46.528Z,1020.04
2023-01-29T15:05:46.529Z,1020.06
2023-01-29T15:06:46.535Z,1020.07
2023-01-29T15:07:46.489Z,1020.08
2023-01-29T15:08:46.474Z,1020.07
2023-01-29T15:09:46.476Z,1020.06
2023-01-29T15:10:46.483Z,1020.04
2023-01-29T15:11:46.438Z,1020.05
2023-01-29T15:12:46.426Z,1020.07
2023-01-29T15:13:46.427Z,1020.08
2023-01-29T15:14:46.418Z,1020.08
2023-01-29T15:15:46.455Z,1020.05
2023-01-29T15:16:46.395Z,1020.04
2023-01-29T15:17:46.385Z,1020.06
2023-01-29T15:18:46.363Z,1020.05
2023-01-29T15:19:46.346Z,1020.04
2023-01-29T15:20:46.387Z,1020.06
2023-01-29T15:21:46.338Z,1020.07
2023-01-29T15:22:46.333Z,1020.06
2023-01-29T15:23:46.312Z,1020.04
2023-01-29T15:24:46.299Z,1020.09
2023-01-29T15:25:46.291Z,1020.03
2023-01-29T15:26:46.295Z,1020.05
2023-01-29T15:27:46.254Z,1020.03
2023-01-29T15:28:54.842Z,1020.01
2023-01-29T15:29:47.231Z,1020.03
2023-01-29T15:30:46.339Z,1020.03
2023-01-29T15:31:47.074Z,1019.98
2023-01-29T15:32:46.213Z,1019.96
2023-01-29T15:33:46.227Z,1020.00
2023-01-29T15:34:46.225Z,1020.01
2023-01-29T15:35:46.326Z,1020.00
2023-01-29T15:36:46.173Z,1020.00
2023-01-29T15:37:46.152Z,1020.00
2023-01-29T15:38:46.137Z,1020.00
2023-01-29T15:39:46.152Z,1019.99
2023-01-29T15:40:46.115Z,1019.99
2023-01-29T15:41:46.186Z,1019.96
2023-01-29T15:42:46.105Z,1020.00
2023-01-29T15:43:46.081Z,1019.96
2023-01-29T15:44:46.104Z,1019.98
2023-01-29T15:45:46.071Z,1019.94
2023-01-29T15:46:46.077Z,1019.94
2023-01-29T15:47:46.082Z,1019.91
2023-01-29T15:48:46.042Z,1019.93
2023-01-29T15:49:46.035Z,1019.89
2023-01-29T15:50:46.005Z,1019.92
2023-01-29T15:51:46.008Z,1019.91
2023-01-29T15:52:46.010Z,1019.89
2023-01-29T15:53:45.964Z,1019.91
2023-01-29T15:54:45.970Z,1019.88
2023-01-29T15:55:45.941Z,1019.87
2023-01-29T15:56:45.948Z,1019.84
2023-01-29T15:57:45.960Z,1019.85
2023-01-29T15:58:45.940Z,1019.85
2023-01-29T15:59:45.903Z,1019.83
2023-01-29T16:00:45.894Z,1019.84
2023-01-29T16:01:45.991Z,1019.83
2023-01-29T16:02:45.993Z,1019.80
2023-01-29T16:03:45.872Z,1019.83
2023-01-29T16:04:45.843Z,1019.80
2023-01-29T16:05:45.854Z,1019.81
2023-01-29T16:06:45.851Z,1019.78
2023-01-29T16:07:45.825Z,1019.83
2023-01-29T16:08:45.820Z,1019.77
2023-01-29T16:09:45.826Z,1019.80
2023-01-29T16:10:45.779Z,1019.78
2023-01-29T16:11:45.790Z,1019.78
2023-01-29T16:12:45.772Z,1019.76
2023-01-29T16:13:46.354Z,1019.79
2023-01-29T16:14:45.753Z,1019.78
2023-01-29T16:15:45.814Z,1019.80
2023-01-29T16:16:45.769Z,1019.83
2023-01-29T16:17:45.712Z,1019.78
2023-01-29T16:18:58.868Z,1019.81
2023-01-29T16:19:46.748Z,1019.80
2023-01-29T16:20:45.677Z,1019.81
2023-01-29T16:21:45.671Z,1019.86
2023-01-29T16:22:45.687Z,1019.87
2023-01-29T16:23:45.655Z,1019.87
2023-01-29T16:24:45.621Z,1019.83
2023-01-29T16:25:45.627Z,1019.87
2023-01-29T16:26:45.658Z,1019.83
2023-01-29T16:27:45.603Z,1019.87
2023-01-29T16:28:45.603Z,1019.84
2023-01-29T16:29:45.571Z,1019.86
2023-01-29T16:30:45.658Z,1019.87
2023-01-29T16:31:45.639Z,1019.85
2023-01-29T16:32:45.544Z,1019.83
2023-01-29T16:33:45.587Z,1019.81
2023-01-29T16:34:45.538Z,1019.77
2023-01-29T16:35:45.546Z,1019.80
2023-01-29T16:36:45.514Z,1019.73
2023-01-29T16:37:45.480Z,1019.74
2023-01-29T16:38:45.464Z,1019.76
2023-01-29T16:39:45.471Z,1019.74
2023-01-29T16:40:45.449Z,1019.74
2023-01-29T16:41:45.447Z,1019.73
2023-01-29T16:42:45.468Z,1019.73
2023-01-29T16:43:45.413Z,1019.73
2023-01-29T16:44:45.418Z,1019.76
2023-01-29T16:45:45.404Z,1019.74
2023-01-29T16:46:45.446Z,1019.74
2023-01-29T16:47:45.383Z,1019.73
2023-01-29T16:48:45.373Z,1019.72
2023-01-29T16:49:45.344Z,1019.74
2023-01-29T16:50:54.696Z,1019.70
2023-01-29T16:51:46.349Z,1019.68
2023-01-29T16:52:45.315Z,1019.73
2023-01-29T16:53:45.299Z,1019.70
2023-01-29T16:54:45.300Z,1019.70
2023-01-29T16:55:45.305Z,1019.64
2023-01-29T16:56:45.278Z,1019.65
2023-01-29T16:57:45.260Z,1019.66
2023-01-29T16:58:45.254Z,1019.65
2023-01-29T16:59:45.238Z,1019.64
2023-01-29T17:00:45.282Z,1019.62
2023-01-29T17:01:45.250Z,1019.64
2023-01-29T17:02:45.207Z,1019.63
2023-01-29T17:03:45.227Z,1019.63
2023-01-29T17:04:45.175Z,1019.63
2023-01-29T17:05:45.187Z,1019.63
2023-01-29T17:06:45.175Z,1019.66
2023-01-29T17:07:45.152Z,1019.63
2023-01-29T17:08:45.142Z,1019.57
2023-01-29T17:09:45.134Z,1019.65
2023-01-29T17:10:45.136Z,1019.64
2023-01-29T17:11:45.099Z,1019.66
2023-01-29T17:12:45.083Z,1019.63
2023-01-29T17:13:45.090Z,1019.61
2023-01-29T17:14:45.075Z,1019.63
2023-01-29T17:15:45.100Z,1019.60
2023-01-29T17:16:45.039Z,1019.58
2023-01-29T17:17:45.044Z,1019.46
2023-01-29T17:18:45.030Z,1019.50
2023-01-29T17:19:45.020Z,1019.50
2023-01-29T17:20:44.995Z,1019.44
2023-01-29T17:21:45.021Z,1019.49
2023-01-29T17:22:44.987Z,1019.44
2023-01-29T17:23:44.978Z,1019.46
2023-01-29T17:24:44.955Z,1019.51
2023-01-29T17:25:44.963Z,1019.44
2023-01-29T17:26:45.010Z,1019.42
2023-01-29T17:27:44.937Z,1019.42
2023-01-29T17:28:44.930Z,1019.43
2023-01-29T17:29:44.905Z,1019.43
2023-01-29T17:30:56.656Z,1019.40
2023-01-29T17:31:45.923Z,1019.36
2023-01-29T17:32:47.545Z,1019.37
2023-01-29T17:33:44.855Z,1019.34
2023-01-29T17:34:44.837Z,1019.34
2023-01-29T17:35:44.846Z,1019.35
2023-01-29T17:36:44.848Z,1019.35
2023-01-29T17:37:44.816Z,1019.36
2023-01-29T17:38:44.802Z,1019.32
2023-01-29T17:39:44.797Z,1019.28
2023-01-29T17:40:44.781Z,1019.28
2023-01-29T17:41:47.310Z,1019.24
2023-01-29T17:42:44.762Z,1019.24
2023-01-29T17:43:44.766Z,1019.21
2023-01-29T17:44:44.727Z,1019.20
2023-01-29T17:45:44.759Z,1019.17
2023-01-29T17:46:44.731Z,1019.13
2023-01-29T17:47:44.726Z,1019.16
2023-01-29T17:48:44.687Z,1019.12
2023-01-29T17:49:44.678Z,1019.08
2023-01-29T17:50:44.660Z,1019.09
2023-01-29T17:51:44.666Z,1019.06
2023-01-29T17:52:44.638Z,1019.08
2023-01-29T17:53:46.453Z,1019.05
2023-01-29T17:54:44.616Z,1019.08
2023-01-29T17:55:44.627Z,1019.09
2023-01-29T17:56:44.594Z,1019.00
2023-01-29T17:57:44.608Z,1019.02
2023-01-29T17:58:44.664Z,1018.99
2023-01-29T17:59:44.578Z,1019.02
2023-01-29T18:00:44.569Z,1019.06
2023-01-29T18:01:44.552Z,1019.06
2023-01-29T18:02:44.531Z,1019.04
2023-01-29T18:03:44.585Z,1019.07
2023-01-29T18:04:44.519Z,1019.09
2023-01-29T18:05:44.511Z,1019.08
2023-01-29T18:06:44.493Z,1019.14
2023-01-29T18:07:44.480Z,1019.09
2023-01-29T18:08:44.460Z,1019.08
2023-01-29T18:09:44.494Z,1019.06
2023-01-29T18:10:44.435Z,1019.06
2023-01-29T18:11:44.442Z,1019.05
2023-01-29T18:12:44.534Z,1019.02
2023-01-29T18:13:44.486Z,1019.01
2023-01-29T18:14:44.496Z,1018.99
2023-01-29T18:15:44.465Z,1019.05
2023-01-29T18:16:44.486Z,1019.01
2023-01-29T18:17:44.385Z,1019.06
2023-01-29T18:18:44.395Z,1019.02
2023-01-29T18:19:44.367Z,1018.96
2023-01-29T18:20:44.330Z,1018.95
2023-01-29T18:21:44.337Z,1018.98
2023-01-29T18:22:44.395Z,1018.93
2023-01-29T18:23:44.373Z,1018.96
2023-01-29T18:24:44.304Z,1018.93
2023-01-29T18:25:44.305Z,1018.93
2023-01-29T18:26:44.343Z,1018.91
2023-01-29T18:27:44.265Z,1018.93
2023-01-29T18:28:44.247Z,1018.96
2023-01-29T18:29:44.245Z,1018.92
2023-01-29T18:30:44.302Z,1018.93
2023-01-29T18:31:44.271Z,1018.88
2023-01-29T18:32:44.218Z,1018.87
2023-01-29T18:33:44.185Z,1018.90
2023-01-29T18:34:44.180Z,1018.90
2023-01-29T18:35:44.184Z,1018.84
2023-01-29T18:36:44.146Z,1018.90
2023-01-29T18:37:44.159Z,1018.80
2023-01-29T18:38:44.133Z,1018.80
2023-01-29T18:39:44.118Z,1018.82
2023-01-29T18:40:44.121Z,1018.75
2023-01-29T18:41:44.098Z,1018.77
2023-01-29T18:42:44.092Z,1018.72
2023-01-29T18:43:44.115Z,1018.66
2023-01-29T18:44:44.107Z,1018.63
2023-01-29T18:45:44.143Z,1018.62
2023-01-29T18:46:44.063Z,1018.64
2023-01-29T18:47:44.058Z,1018.66
2023-01-29T18:48:44.012Z,1018.60
2023-01-29T18:49:44.022Z,1018.57
2023-01-29T18:50:43.992Z,1018.57
2023-01-29T18:51:44.030Z,1018.59
2023-01-29T18:52:43.983Z,1018.58
2023-01-29T18:53:46.494Z,1018.60
2023-01-29T18:54:43.946Z,1018.56
2023-01-29T18:55:43.945Z,1018.51
2023-01-29T18:57:08.256Z,1018.50
2023-01-29T18:58:27.495Z,1018.44
2023-01-29T18:58:44.900Z,1018.41
2023-01-29T18:59:44.908Z,1018.40
2023-01-29T19:00:44.002Z,1018.43
2023-01-29T19:01:43.883Z,1018.33
2023-01-29T19:02:43.880Z,1018.39
2023-01-29T19:03:43.868Z,1018.35
2023-01-29T19:04:43.837Z,1018.41
2023-01-29T19:05:43.843Z,1018.35
2023-01-29T19:06:43.826Z,1018.34
2023-01-29T19:07:43.880Z,1018.34
2023-01-29T19:08:43.819Z,1018.32
2023-01-29T19:09:43.785Z,1018.26
2023-01-29T19:10:43.777Z,1018.24
2023-01-29T19:11:43.784Z,1018.25
2023-01-29T19:12:43.789Z,1018.28
2023-01-29T19:13:43.752Z,1018.20
2023-01-29T19:14:43.743Z,1018.17
2023-01-29T19:15:43.719Z,1018.16
2023-01-29T19:16:43.703Z,1018.14
2023-01-29T19:17:43.727Z,1018.06
2023-01-29T19:18:43.695Z,1018.07
2023-01-29T19:19:43.692Z,1018.07
2023-01-29T19:20:43.672Z,1018.02
2023-01-29T19:21:43.670Z,1018.02
2023-01-29T19:22:43.666Z,1018.03
2023-01-29T19:23:43.645Z,1017.96
2023-01-29T19:24:43.636Z,1017.96
2023-01-29T19:25:43.609Z,1018.03
2023-01-29T19:26:43.687Z,1017.89
2023-01-29T19:27:43.624Z,1017.90
2023-01-29T19:28:43.583Z,1017.83
2023-01-29T19:29:43.563Z,1017.80
2023-01-29T19:30:43.610Z,1017.89